createdAt,value
2018-05-04T00:01:36.999Z,3.30
2018-05-04T00:04:04.641Z,3.30
2018-05-04T00:06:32.241Z,3.30
2018-05-04T00:08:59.869Z,3.40
2018-05-04T00:11:27.460Z,3.30
2018-05-04T00:13:55.110Z,3.20
2018-05-04T00:16:22.772Z,3.20
2018-05-04T00:18:50.373Z,3.20
2018-05-04T00:21:18.017Z,3.20
2018-05-04T00:23:45.591Z,3.20
2018-05-04T00:26:13.251Z,3.20
2018-05-04T00:28:41.615Z,3.10
2018-05-04T00:31:09.249Z,3.10
2018-05-04T00:33:36.885Z,3.10
2018-05-04T00:36:04.476Z,3.10
2018-05-04T00:38:32.119Z,3.10
2018-05-04T00:40:59.691Z,3.10
2018-05-04T00:43:27.254Z,3.00
2018-05-04T00:45:54.869Z,3.00
2018-05-04T00:48:22.550Z,3.00
2018-05-04T00:50:50.097Z,2.90
2018-05-04T00:53:17.655Z,2.80
2018-05-04T00:55:46.038Z,2.80
2018-05-04T00:58:14.416Z,2.80
2018-05-04T01:00:42.748Z,2.80
2018-05-04T01:03:10.364Z,2.80
2018-05-04T01:05:38.755Z,2.80
2018-05-04T01:08:06.337Z,2.80
2018-05-04T01:10:33.906Z,2.80
2018-05-04T01:13:01.512Z,2.80
2018-05-04T01:15:29.130Z,2.70
2018-05-04T01:17:56.706Z,2.70
2018-05-04T01:20:24.311Z,2.70
2018-05-04T01:22:51.878Z,2.60
2018-05-04T01:25:19.503Z,2.60
2018-05-04T01:27:47.075Z,2.60
2018-05-04T01:30:15.412Z,2.60
2018-05-04T01:32:43.023Z,2.60
2018-05-04T01:35:10.629Z,2.60
2018-05-04T01:37:38.211Z,2.60
2018-05-04T01:40:05.774Z,2.60
2018-05-04T01:42:33.377Z,2.60
2018-05-04T01:45:01.749Z,2.60
2018-05-04T01:47:29.380Z,2.60
2018-05-04T01:49:57.036Z,2.50
2018-05-04T01:52:24.609Z,2.50
2018-05-04T01:54:52.173Z,2.60
2018-05-04T01:57:19.793Z,2.60
2018-05-04T01:59:47.366Z,2.60
2018-05-04T02:02:14.934Z,2.60
2018-05-04T02:04:42.546Z,2.50
2018-05-04T02:07:10.116Z,2.60
2018-05-04T02:09:37.736Z,2.60
2018-05-04T02:12:06.094Z,2.40
2018-05-04T02:14:33.664Z,2.40
2018-05-04T02:17:01.269Z,2.40
2018-05-04T02:19:28.843Z,2.40
2018-05-04T02:21:56.449Z,2.40
2018-05-04T02:24:24.016Z,2.40
2018-05-04T02:26:51.628Z,2.40
2018-05-04T02:29:19.187Z,2.40
2018-05-04T02:31:46.796Z,2.40
2018-05-04T02:34:14.369Z,2.30
2018-05-04T02:36:41.975Z,2.20
2018-05-04T02:39:09.547Z,2.20
2018-05-04T02:41:37.145Z,2.20
2018-05-04T02:44:04.765Z,2.20
2018-05-04T02:46:32.332Z,2.20
2018-05-04T02:48:59.937Z,2.20
2018-05-04T02:51:28.319Z,2.20
2018-05-04T02:53:55.932Z,2.20
2018-05-04T02:56:23.504Z,2.20
2018-05-04T02:58:51.072Z,2.10
2018-05-04T03:01:18.678Z,2.10
2018-05-04T03:03:47.022Z,1.90
2018-05-04T03:06:14.628Z,1.90
2018-05-04T03:08:42.197Z,2.00
2018-05-04T03:11:09.805Z,2.00
2018-05-04T03:13:37.380Z,2.00
2018-05-04T03:16:04.985Z,2.00
2018-05-04T03:18:32.548Z,2.10
2018-05-04T03:21:01.012Z,2.10
2018-05-04T03:23:28.576Z,2.10
2018-05-04T03:25:56.187Z,2.10
2018-05-04T03:28:23.753Z,2.10
2018-05-04T03:30:51.369Z,2.10
2018-05-04T03:33:18.937Z,2.10
2018-05-04T03:35:46.501Z,2.10
2018-05-04T03:38:14.118Z,2.10
2018-05-04T03:40:41.745Z,2.00
2018-05-04T03:43:09.533Z,2.00
2018-05-04T03:45:37.148Z,1.90
2018-05-04T03:48:04.764Z,1.90
2018-05-04T03:50:32.328Z,1.80
2018-05-04T03:52:59.888Z,1.80
2018-05-04T03:55:27.493Z,1.80
2018-05-04T03:58:06.944Z,1.80
2018-05-04T04:00:46.325Z,1.90
2018-05-04T04:03:26.081Z,1.90
2018-05-04T04:05:54.444Z,2.10
2018-05-04T04:08:22.010Z,2.10
2018-05-04T04:10:49.567Z,2.20
2018-05-04T04:13:17.164Z,2.20
2018-05-04T04:15:44.764Z,2.10
2018-05-04T04:18:12.342Z,2.00
2018-05-04T04:20:39.939Z,2.00
2018-05-04T04:23:07.545Z,2.00
2018-05-04T04:25:35.103Z,2.10
2018-05-04T04:28:02.670Z,2.10
2018-05-04T04:30:30.265Z,2.10
2018-05-04T04:32:58.632Z,2.20
2018-05-04T04:35:26.193Z,2.20
2018-05-04T04:37:53.798Z,2.30
2018-05-04T04:40:21.400Z,2.40
2018-05-04T04:42:48.995Z,2.40
2018-05-04T04:45:16.594Z,2.50
2018-05-04T04:47:44.156Z,2.50
2018-05-04T04:50:11.754Z,2.60
2018-05-04T04:52:39.332Z,2.70
2018-05-04T04:55:06.932Z,2.80
2018-05-04T04:57:34.497Z,2.80
2018-05-04T05:00:02.106Z,3.00
2018-05-04T05:02:29.701Z,3.10
2018-05-04T05:04:57.291Z,3.30
2018-05-04T05:07:24.892Z,3.40
2018-05-04T05:09:52.459Z,3.50
2018-05-04T05:12:20.064Z,3.60
2018-05-04T05:14:47.650Z,3.80
2018-05-04T05:17:15.353Z,3.90
2018-05-04T05:19:43.684Z,3.90
2018-05-04T05:22:11.256Z,3.90
2018-05-04T05:24:38.877Z,4.00
2018-05-04T05:27:06.447Z,4.10
2018-05-04T05:29:34.061Z,4.20
2018-05-04T05:32:01.641Z,4.30
2018-05-04T05:34:29.980Z,4.50
2018-05-04T05:36:57.580Z,4.50
2018-05-04T05:39:25.169Z,4.60
2018-05-04T05:41:52.776Z,4.70
2018-05-04T05:44:20.384Z,4.80
2018-05-04T05:46:47.958Z,4.90
2018-05-04T05:49:15.565Z,5.00
2018-05-04T05:51:43.127Z,5.10
2018-05-04T05:54:11.515Z,5.20
2018-05-04T05:56:39.886Z,5.20
2018-05-04T05:59:07.500Z,5.20
2018-05-04T06:01:35.068Z,5.30
2018-05-04T06:04:02.672Z,5.30
2018-05-04T06:06:30.291Z,5.40
2018-05-04T06:08:57.893Z,5.40
2018-05-04T06:11:25.613Z,5.50
2018-05-04T06:13:53.184Z,5.50
2018-05-04T06:16:20.797Z,5.60
2018-05-04T06:18:49.124Z,5.90
2018-05-04T06:21:16.757Z,5.90
2018-05-04T06:23:44.346Z,6.10
2018-05-04T06:26:11.941Z,6.20
2018-05-04T06:28:39.558Z,6.20
2018-05-04T06:31:07.337Z,6.30
2018-05-04T06:33:34.921Z,6.40
2018-05-04T06:36:02.485Z,6.60
2018-05-04T06:38:30.088Z,6.70
2018-05-04T06:40:57.644Z,6.90
2018-05-04T06:43:25.263Z,7.00
2018-05-04T06:45:53.725Z,7.40
2018-05-04T06:48:22.016Z,7.60
2018-05-04T06:50:49.672Z,7.50
2018-05-04T06:53:17.306Z,7.70
2018-05-04T06:55:45.628Z,8.10
2018-05-04T06:58:13.846Z,8.10
2018-05-04T07:00:41.533Z,8.20
2018-05-04T07:03:09.128Z,8.40
2018-05-04T07:05:36.690Z,8.60
2018-05-04T07:08:04.288Z,8.70
2018-05-04T07:10:31.920Z,8.80
2018-05-04T07:12:59.486Z,9.00
2018-05-04T07:15:27.092Z,9.20
2018-05-04T07:17:54.665Z,9.30
2018-05-04T07:20:22.260Z,9.50
2018-05-04T07:22:49.820Z,9.50
2018-05-04T07:25:17.429Z,9.60
2018-05-04T07:27:45.033Z,9.70
2018-05-04T07:30:12.591Z,9.80
2018-05-04T07:32:40.197Z,9.80
2018-05-04T07:35:07.760Z,9.80
2018-05-04T07:37:35.350Z,9.80
2018-05-04T07:40:02.918Z,9.90
2018-05-04T07:42:30.532Z,10.00
2018-05-04T07:44:58.092Z,10.20
2018-05-04T07:47:25.702Z,10.30
2018-05-04T07:49:53.271Z,10.50
2018-05-04T07:52:20.840Z,10.60
2018-05-04T07:54:48.448Z,10.80
2018-05-04T07:57:16.021Z,10.90
2018-05-04T07:59:43.597Z,11.10
2018-05-04T08:02:11.191Z,11.20
2018-05-04T08:04:38.754Z,11.30
2018-05-04T08:07:06.356Z,11.40
2018-05-04T08:09:33.915Z,11.60
2018-05-04T08:12:01.515Z,11.70
2018-05-04T08:14:29.083Z,11.90
2018-05-04T08:16:56.689Z,12.00
2018-05-04T08:19:24.283Z,12.00
2018-05-04T08:21:51.879Z,11.90
2018-05-04T08:24:19.450Z,11.90
2018-05-04T08:26:47.053Z,11.90
2018-05-04T08:29:14.623Z,12.00
2018-05-04T08:31:42.229Z,12.20
2018-05-04T08:34:09.803Z,12.40
2018-05-04T08:36:38.165Z,12.70
2018-05-04T08:39:05.733Z,12.60
2018-05-04T08:41:33.345Z,12.60
2018-05-04T08:44:00.948Z,12.60
2018-05-04T08:46:28.520Z,12.80
2018-05-04T08:48:56.898Z,13.00
2018-05-04T08:51:25.238Z,13.10
2018-05-04T08:53:52.844Z,13.10
2018-05-04T08:56:21.175Z,13.50
2018-05-04T08:58:48.782Z,13.50
2018-05-04T09:01:17.155Z,13.70
2018-05-04T09:03:44.758Z,13.70
2018-05-04T09:06:12.332Z,13.80
2018-05-04T09:08:39.905Z,13.90
2018-05-04T09:11:07.587Z,14.00
2018-05-04T09:13:35.213Z,14.10
2018-05-04T09:16:02.772Z,14.30
2018-05-04T09:18:30.344Z,14.40
2018-05-04T09:20:57.961Z,14.50
2018-05-04T09:23:26.337Z,14.80
2018-05-04T09:25:54.676Z,14.90
2018-05-04T09:28:22.325Z,14.80
2018-05-04T09:30:50.833Z,14.80
2018-05-04T09:33:18.341Z,14.80
2018-05-04T09:35:45.918Z,14.80
2018-05-04T09:38:13.528Z,15.00
2018-05-04T09:40:41.145Z,15.10
2018-05-04T09:43:08.748Z,15.20
2018-05-04T09:45:36.319Z,15.40
2018-05-04T09:48:03.928Z,15.40
2018-05-04T09:50:31.486Z,15.40
2018-05-04T09:52:59.141Z,15.30
2018-05-04T09:55:26.959Z,15.40
2018-05-04T09:57:54.567Z,15.50
2018-05-04T10:00:22.139Z,15.60
2018-05-04T10:02:49.749Z,15.70
2018-05-04T10:05:18.110Z,15.70
2018-05-04T10:07:45.725Z,15.70
2018-05-04T10:10:13.326Z,15.50
2018-05-04T10:12:40.969Z,15.50
2018-05-04T10:15:08.533Z,15.40
2018-05-04T10:17:36.161Z,15.30
2018-05-04T10:20:03.886Z,15.20
2018-05-04T10:22:32.244Z,15.00
2018-05-04T10:24:59.874Z,15.00
2018-05-04T10:27:27.488Z,15.00
2018-05-04T10:29:55.517Z,14.90
2018-05-04T10:32:23.090Z,14.80
2018-05-04T10:34:50.692Z,14.80
2018-05-04T10:37:18.263Z,14.90
2018-05-04T10:39:45.930Z,14.90
2018-05-04T10:42:13.495Z,15.00
2018-05-04T10:44:41.091Z,15.20
2018-05-04T10:47:08.672Z,15.20
2018-05-04T10:49:36.240Z,15.30
2018-05-04T10:52:03.832Z,15.40
2018-05-04T10:54:31.438Z,15.50
2018-05-04T10:56:59.060Z,15.50
2018-05-04T10:59:26.631Z,15.50
2018-05-04T11:01:54.192Z,15.40
2018-05-04T11:04:21.787Z,15.50
2018-05-04T11:06:49.409Z,15.50
2018-05-04T11:09:16.976Z,15.60
2018-05-04T11:11:44.539Z,15.70
2018-05-04T11:14:12.143Z,15.70
2018-05-04T11:16:39.757Z,15.70
2018-05-04T11:19:07.364Z,15.80
2018-05-04T11:21:34.936Z,15.80
2018-05-04T11:24:02.556Z,15.70
2018-05-04T11:26:30.118Z,15.70
2018-05-04T11:28:57.689Z,15.80
2018-05-04T11:31:25.299Z,15.70
2018-05-04T11:33:52.903Z,15.80
2018-05-04T11:36:20.493Z,16.00
2018-05-04T11:38:48.098Z,16.10
2018-05-04T11:41:15.700Z,16.30
2018-05-04T11:43:43.512Z,16.40
2018-05-04T11:46:11.129Z,16.50
2018-05-04T11:48:38.696Z,16.50
2018-05-04T11:51:06.306Z,16.40
2018-05-04T11:53:33.879Z,16.40
2018-05-04T11:56:01.490Z,16.30
2018-05-04T11:58:29.062Z,16.50
2018-05-04T12:00:56.687Z,16.70
2018-05-04T12:03:24.255Z,16.70
2018-05-04T12:05:51.834Z,16.50
2018-05-04T12:08:19.446Z,16.40
2018-05-04T12:10:47.067Z,16.40
2018-05-04T12:13:14.685Z,16.50
2018-05-04T12:15:42.288Z,16.60
2018-05-04T12:18:09.857Z,16.60
2018-05-04T12:20:37.467Z,16.70
2018-05-04T12:23:05.027Z,16.70
2018-05-04T12:25:32.624Z,16.80
2018-05-04T12:28:00.227Z,16.90
2018-05-04T12:30:27.857Z,16.80
2018-05-04T12:32:55.414Z,17.00
2018-05-04T12:35:23.033Z,17.00
2018-05-04T12:37:50.595Z,17.20
2018-05-04T12:40:18.159Z,17.30
2018-05-04T12:42:45.763Z,17.20
2018-05-04T12:45:13.355Z,17.20
2018-05-04T12:47:40.952Z,17.40
2018-05-04T12:50:08.529Z,17.50
2018-05-04T12:52:36.138Z,17.60
2018-05-04T12:55:03.944Z,17.80
2018-05-04T12:57:31.504Z,18.10
2018-05-04T12:59:59.108Z,18.30
2018-05-04T13:02:27.438Z,18.40
2018-05-04T13:04:55.047Z,18.40
2018-05-04T13:07:23.384Z,19.10
2018-05-04T13:09:50.984Z,19.10
2018-05-04T13:12:18.545Z,19.20
2018-05-04T13:14:46.909Z,19.50
2018-05-04T13:17:14.483Z,19.50
2018-05-04T13:19:42.094Z,19.50
2018-05-04T13:22:09.719Z,19.70
2018-05-04T13:24:38.055Z,19.60
2018-05-04T13:27:05.651Z,19.60
2018-05-04T13:29:33.257Z,19.60
2018-05-04T13:32:00.870Z,19.70
2018-05-04T13:34:28.436Z,19.70
2018-05-04T13:36:56.049Z,19.90
2018-05-04T13:39:23.758Z,19.90
2018-05-04T13:41:52.123Z,19.90
2018-05-04T13:44:19.693Z,19.80
2018-05-04T13:46:47.301Z,19.80
2018-05-04T13:49:15.181Z,20.00
2018-05-04T13:51:42.775Z,20.10
2018-05-04T13:54:10.353Z,20.20
2018-05-04T13:56:38.735Z,20.00
2018-05-04T13:59:07.073Z,20.10
2018-05-04T14:01:34.682Z,20.10
2018-05-04T14:04:02.293Z,20.00
2018-05-04T14:06:29.878Z,19.90
2018-05-04T14:08:57.484Z,20.00
2018-05-04T14:11:25.090Z,20.00
2018-05-04T14:13:52.664Z,20.00
2018-05-04T14:16:20.276Z,19.90
2018-05-04T14:18:49.621Z,19.90
2018-05-04T14:21:17.236Z,19.90
2018-05-04T14:23:44.812Z,19.70
2018-05-04T14:26:12.428Z,19.60
2018-05-04T14:28:40.014Z,19.80
2018-05-04T14:31:07.637Z,19.80
2018-05-04T14:33:35.217Z,19.90
2018-05-04T14:36:03.588Z,20.00
2018-05-04T14:38:31.936Z,20.20
2018-05-04T14:40:59.540Z,20.20
2018-05-04T14:43:27.881Z,20.00
2018-05-04T14:45:55.496Z,20.00
2018-05-04T14:48:23.070Z,20.10
2018-05-04T14:50:50.675Z,20.40
2018-05-04T14:53:18.246Z,20.70
2018-05-04T14:55:46.644Z,21.00
2018-05-04T14:58:14.224Z,21.00
2018-05-04T15:00:41.804Z,21.10
2018-05-04T15:03:09.431Z,21.20
2018-05-04T15:05:37.018Z,21.30
2018-05-04T15:08:04.599Z,21.40
2018-05-04T15:10:32.217Z,21.20
2018-05-04T15:12:59.837Z,21.20
2018-05-04T15:15:27.421Z,21.20
2018-05-04T15:17:55.036Z,21.20
2018-05-04T15:20:22.616Z,21.30
2018-05-04T15:22:50.237Z,21.40
2018-05-04T15:25:17.800Z,21.30
2018-05-04T15:27:45.377Z,21.00
2018-05-04T15:30:13.004Z,20.90
2018-05-04T15:32:40.581Z,20.90
2018-05-04T15:35:08.209Z,20.70
2018-05-04T15:37:35.856Z,20.80
2018-05-04T15:40:04.232Z,21.00
2018-05-04T15:42:31.846Z,21.00
2018-05-04T15:44:59.929Z,21.20
2018-05-04T15:47:28.003Z,20.90
2018-05-04T15:49:56.340Z,20.70
2018-05-04T15:52:24.066Z,20.50
2018-05-04T15:54:51.746Z,20.50
2018-05-04T15:57:19.611Z,20.70
2018-05-04T15:59:48.897Z,20.70
2018-05-04T16:02:16.886Z,20.80
2018-05-04T16:04:44.577Z,20.50
2018-05-04T16:07:12.161Z,19.90
2018-05-04T16:09:39.783Z,19.30
2018-05-04T16:12:09.909Z,18.50
2018-05-04T16:14:37.493Z,18.50
2018-05-04T16:17:08.450Z,18.30
2018-05-04T16:19:36.042Z,18.30
2018-05-04T16:22:03.683Z,18.30
2018-05-04T16:24:31.288Z,18.40
2018-05-04T16:26:59.665Z,18.80
2018-05-04T16:29:28.028Z,19.00
2018-05-04T16:31:55.650Z,19.00
2018-05-04T16:34:23.235Z,19.00
2018-05-04T16:36:53.063Z,18.90
2018-05-04T16:39:22.012Z,18.90
2018-05-04T16:41:51.291Z,18.80
2018-05-04T16:44:19.677Z,18.20
2018-05-04T16:46:53.437Z,18.10
2018-05-04T16:49:25.896Z,17.90
2018-05-04T16:51:53.467Z,17.80
2018-05-04T16:54:21.040Z,18.00
2018-05-04T16:56:48.662Z,18.10
2018-05-04T16:59:16.249Z,18.30
2018-05-04T17:01:43.850Z,18.60
2018-05-04T17:04:12.225Z,19.00
2018-05-04T17:06:39.817Z,19.00
2018-05-04T17:09:07.473Z,19.20
2018-05-04T17:11:35.804Z,19.20
2018-05-04T17:14:05.488Z,19.10
2018-05-04T17:16:33.640Z,19.30
2018-05-04T17:19:02.249Z,19.30
2018-05-04T17:21:30.501Z,19.40
2018-05-04T17:23:58.548Z,19.20
2018-05-04T17:26:27.882Z,19.30
2018-05-04T17:28:56.048Z,19.40
2018-05-04T17:31:24.285Z,19.30
2018-05-04T17:33:52.392Z,19.00
2018-05-04T17:36:20.484Z,18.80
2018-05-04T17:38:48.652Z,18.70
2018-05-04T17:41:16.899Z,18.70
2018-05-04T17:43:45.016Z,18.70
2018-05-04T17:46:13.836Z,18.70
2018-05-04T17:48:42.278Z,18.70
2018-05-04T17:51:11.190Z,18.60
2018-05-04T17:53:39.422Z,18.60
2018-05-04T17:56:07.470Z,18.50
2018-05-04T17:58:35.754Z,18.20
2018-05-04T18:01:03.830Z,17.90
2018-05-04T18:03:32.638Z,17.80
2018-05-04T18:06:00.685Z,17.80
2018-05-04T18:08:28.749Z,17.70
2018-05-04T18:10:56.853Z,17.60
2018-05-04T18:13:24.982Z,17.40
2018-05-04T18:15:53.059Z,17.20
2018-05-04T18:18:22.384Z,17.10
2018-05-04T18:20:51.028Z,16.80
2018-05-04T18:23:19.662Z,16.50
2018-05-04T18:25:47.443Z,16.50
2018-05-04T18:28:15.355Z,16.10
2018-05-04T18:30:46.136Z,15.70
2018-05-04T18:33:15.389Z,15.10
2018-05-04T18:35:43.829Z,14.50
2018-05-04T18:38:11.453Z,14.10
2018-05-04T18:40:39.030Z,13.80
2018-05-04T18:43:07.390Z,13.20
2018-05-04T18:45:35.012Z,13.20
2018-05-04T18:48:02.579Z,13.00
2018-05-04T18:50:30.153Z,12.80
2018-05-04T18:52:57.783Z,12.60
2018-05-04T18:55:25.396Z,12.50
2018-05-04T18:57:52.969Z,12.40
2018-05-04T19:00:20.586Z,12.20
2018-05-04T19:02:53.862Z,12.10
2018-05-04T19:05:21.440Z,12.10
2018-05-04T19:07:49.051Z,12.00
2018-05-04T19:10:17.595Z,11.80
2018-05-04T19:12:45.167Z,11.80
2018-05-04T19:15:12.779Z,11.70
2018-05-04T19:17:40.350Z,11.60
2018-05-04T19:20:07.941Z,11.50
2018-05-04T19:22:35.556Z,11.50
2018-05-04T19:25:03.181Z,11.40
2018-05-04T19:27:30.795Z,11.30
2018-05-04T19:29:58.391Z,11.20
2018-05-04T19:32:25.971Z,11.10
2018-05-04T19:34:53.648Z,11.00
2018-05-04T19:37:21.247Z,10.90
2018-05-04T19:39:48.860Z,10.80
2018-05-04T19:42:16.471Z,10.80
2018-05-04T19:44:44.049Z,10.80
2018-05-04T19:47:11.665Z,10.70
2018-05-04T19:49:39.240Z,10.60
2018-05-04T19:52:06.840Z,10.60
2018-05-04T19:54:34.409Z,10.40
2018-05-04T19:57:02.020Z,10.40
2018-05-04T19:59:29.606Z,10.30
2018-05-04T20:01:57.224Z,10.30
2018-05-04T20:04:24.809Z,10.20
2018-05-04T20:06:52.391Z,10.10
2018-05-04T20:09:20.020Z,10.10
2018-05-04T20:11:47.590Z,10.00
2018-05-04T20:14:15.248Z,10.00
2018-05-04T20:16:42.812Z,9.90
2018-05-04T20:19:10.424Z,9.90
2018-05-04T20:21:38.029Z,9.80
2018-05-04T20:24:05.602Z,9.70
2018-05-04T20:26:33.217Z,9.60
2018-05-04T20:29:00.797Z,9.60
2018-05-04T20:31:28.410Z,9.50
2018-05-04T20:33:55.996Z,9.50
2018-05-04T20:36:23.601Z,9.40
2018-05-04T20:38:51.165Z,9.40
2018-05-04T20:41:18.767Z,9.30
2018-05-04T20:43:46.345Z,9.30
2018-05-04T20:46:13.950Z,9.20
2018-05-04T20:48:41.520Z,9.20
2018-05-04T20:51:09.127Z,9.10
2018-05-04T20:53:36.700Z,9.00
2018-05-04T20:56:04.304Z,8.90
2018-05-04T20:58:31.870Z,8.90
2018-05-04T21:00:59.472Z,8.80
2018-05-04T21:03:27.047Z,8.70
2018-05-04T21:05:54.655Z,8.70
2018-05-04T21:08:22.221Z,8.60
2018-05-04T21:10:49.818Z,8.60
2018-05-04T21:13:17.405Z,8.60
2018-05-04T21:15:45.781Z,8.40
2018-05-04T21:18:14.117Z,8.30
2018-05-04T21:20:41.724Z,8.30
2018-05-04T21:23:09.450Z,8.20
2018-05-04T21:25:37.019Z,8.20
2018-05-04T21:28:04.625Z,8.30
2018-05-04T21:30:32.237Z,8.20
2018-05-04T21:32:59.866Z,8.20
2018-05-04T21:35:27.646Z,8.20
2018-05-04T21:37:55.366Z,8.20
2018-05-04T21:40:23.050Z,8.20
2018-05-04T21:42:51.240Z,8.20
2018-05-04T21:45:18.882Z,8.10
2018-05-04T21:47:46.553Z,8.10
2018-05-04T21:50:14.244Z,8.10
2018-05-04T21:52:41.858Z,8.10
2018-05-04T21:55:09.505Z,8.00
2018-05-04T21:57:37.215Z,7.90
2018-05-04T22:00:04.843Z,7.80
2018-05-04T22:02:33.173Z,7.80
2018-05-04T22:05:01.504Z,7.80
2018-05-04T22:07:29.263Z,7.80
2018-05-04T22:12:31.470Z,7.70
2018-05-04T22:14:59.122Z,7.70
2018-05-04T22:17:26.762Z,7.60
2018-05-04T22:19:55.105Z,7.70
2018-05-04T22:22:22.710Z,7.70
2018-05-04T22:24:51.042Z,7.70
2018-05-04T22:27:18.640Z,7.60
2018-05-04T22:29:46.207Z,7.70
2018-05-04T22:32:14.532Z,7.60
2018-05-04T22:34:42.152Z,7.50
2018-05-04T22:37:09.716Z,7.50
2018-05-04T22:39:37.329Z,7.50
2018-05-04T22:42:04.895Z,7.40
2018-05-04T22:44:32.512Z,7.30
2018-05-04T22:47:00.081Z,7.20
2018-05-04T22:49:27.702Z,7.20
2018-05-04T22:51:56.038Z,7.20
2018-05-04T22:54:23.596Z,7.10
2018-05-04T22:56:51.195Z,7.10
2018-05-04T22:59:18.764Z,7.20
2018-05-04T23:01:47.132Z,7.10
2018-05-04T23:04:14.741Z,7.10
2018-05-04T23:06:42.310Z,7.10
2018-05-04T23:09:09.989Z,7.00
2018-05-04T23:11:37.516Z,7.00
2018-05-04T23:14:05.125Z,6.90
2018-05-04T23:16:32.759Z,6.90
2018-05-04T23:19:00.371Z,6.80
2018-05-04T23:21:27.941Z,6.80
2018-05-04T23:23:56.316Z,6.70
2018-05-04T23:26:24.659Z,6.70
2018-05-04T23:28:52.276Z,6.70
2018-05-04T23:31:19.884Z,6.60
2018-05-04T23:33:47.483Z,6.60
2018-05-04T23:36:15.856Z,6.40
2018-05-04T23:38:44.192Z,6.40
2018-05-04T23:41:11.790Z,6.40
2018-05-04T23:43:39.355Z,6.30
2018-05-04T23:46:06.949Z,6.30
2018-05-04T23:48:34.544Z,6.30
2018-05-04T23:51:02.115Z,6.40
2018-05-04T23:53:29.735Z,6.50
2018-05-04T23:55:57.308Z,6.50
2018-05-04T23:58:25.856Z,6.60
